sensor_id;sensor_type;location;lat;lon;timestamp;P1;durP1;ratioP1;P2;durP2;ratioP2
73729;SDS011;62036;48.128;16.458;2022-09-09T00:04:25;1.13;;;0.40;;
73729;SDS011;62036;48.128;16.458;2022-09-09T00:06:58;0.50;;;0.30;;
73729;SDS011;62036;48.128;16.458;2022-09-09T00:09:26;0.77;;;0.70;;
73729;SDS011;62036;48.128;16.458;2022-09-09T00:11:54;0.77;;;0.50;;
73729;SDS011;62036;48.128;16.458;2022-09-09T00:14:29;0.82;;;0.40;;
73729;SDS011;62036;48.128;16.458;2022-09-09T00:17:00;0.40;;;0.40;;
73729;SDS011;62036;48.128;16.458;2022-09-09T00:19:35;1.05;;;0.38;;
73729;SDS011;62036;48.128;16.458;2022-09-09T00:22:17;1.40;;;0.47;;
73729;SDS011;62036;48.128;16.458;2022-09-09T00:24:51;2.65;;;0.52;;
73729;SDS011;62036;48.128;16.458;2022-09-09T00:30:25;0.60;;;0.32;;
73729;SDS011;62036;48.128;16.458;2022-09-09T00:32:58;0.65;;;0.60;;
73729;SDS011;62036;48.128;16.458;2022-09-09T00:37:55;0.43;;;0.32;;
73729;SDS011;62036;48.128;16.458;2022-09-09T00:48:32;0.47;;;0.32;;
73729;SDS011;62036;48.128;16.458;2022-09-09T00:51:04;2.45;;;0.70;;
73729;SDS011;62036;48.128;16.458;2022-09-09T00:56:14;1.30;;;0.30;;
73729;SDS011;62036;48.128;16.458;2022-09-09T00:58:48;0.55;;;0.32;;
73729;SDS011;62036;48.128;16.458;2022-09-09T01:01:19;1.20;;;0.43;;
73729;SDS011;62036;48.128;16.458;2022-09-09T01:03:52;0.60;;;0.40;;
73729;SDS011;62036;48.128;16.458;2022-09-09T01:06:34;0.50;;;0.38;;
73729;SDS011;62036;48.128;16.458;2022-09-09T01:14:30;2.35;;;1.10;;
73729;SDS011;62036;48.128;16.458;2022-09-09T01:17:03;1.13;;;0.70;;
73729;SDS011;62036;48.128;16.458;2022-09-09T01:24:52;0.93;;;0.55;;
73729;SDS011;62036;48.128;16.458;2022-09-09T01:27:20;1.58;;;0.70;;
73729;SDS011;62036;48.128;16.458;2022-09-09T01:29:46;0.82;;;0.32;;
73729;SDS011;62036;48.128;16.458;2022-09-09T01:34:58;0.35;;;0.30;;
73729;SDS011;62036;48.128;16.458;2022-09-09T01:37:24;0.45;;;0.40;;
73729;SDS011;62036;48.128;16.458;2022-09-09T01:39:50;1.30;;;0.45;;
73729;SDS011;62036;48.128;16.458;2022-09-09T01:42:16;0.75;;;0.50;;
73729;SDS011;62036;48.128;16.458;2022-09-09T01:44:42;0.55;;;0.40;;
73729;SDS011;62036;48.128;16.458;2022-09-09T01:47:08;1.08;;;0.43;;
73729;SDS011;62036;48.128;16.458;2022-09-09T01:49:34;1.00;;;0.50;;
73729;SDS011;62036;48.128;16.458;2022-09-09T01:52:00;0.98;;;0.50;;
73729;SDS011;62036;48.128;16.458;2022-09-09T01:54:28;0.90;;;0.45;;
73729;SDS011;62036;48.128;16.458;2022-09-09T02:02:03;1.00;;;0.70;;
73729;SDS011;62036;48.128;16.458;2022-09-09T02:04:40;1.33;;;0.80;;
73729;SDS011;62036;48.128;16.458;2022-09-09T02:07:10;1.27;;;0.70;;
73729;SDS011;62036;48.128;16.458;2022-09-09T02:09:39;0.77;;;0.70;;
73729;SDS011;62036;48.128;16.458;2022-09-09T02:12:13;2.83;;;0.88;;
73729;SDS011;62036;48.128;16.458;2022-09-09T02:14:45;0.90;;;0.70;;
73729;SDS011;62036;48.128;16.458;2022-09-09T02:17:13;2.55;;;0.75;;
73729;SDS011;62036;48.128;16.458;2022-09-09T02:19:52;1.40;;;0.90;;
73729;SDS011;62036;48.128;16.458;2022-09-09T02:22:19;1.55;;;0.82;;
73729;SDS011;62036;48.128;16.458;2022-09-09T02:24:47;2.08;;;1.00;;
73729;SDS011;62036;48.128;16.458;2022-09-09T02:27:13;0.73;;;0.70;;
73729;SDS011;62036;48.128;16.458;2022-09-09T02:29:41;2.00;;;0.70;;
73729;SDS011;62036;48.128;16.458;2022-09-09T02:32:09;1.85;;;0.85;;
73729;SDS011;62036;48.128;16.458;2022-09-09T02:34:38;2.00;;;1.25;;
73729;SDS011;62036;48.128;16.458;2022-09-09T02:37:06;1.35;;;0.70;;
73729;SDS011;62036;48.128;16.458;2022-09-09T02:39:32;1.52;;;0.85;;
73729;SDS011;62036;48.128;16.458;2022-09-09T02:41:59;0.80;;;0.70;;
73729;SDS011;62036;48.128;16.458;2022-09-09T02:44:25;0.93;;;0.63;;
73729;SDS011;62036;48.128;16.458;2022-09-09T02:46:56;1.00;;;0.80;;
73729;SDS011;62036;48.128;16.458;2022-09-09T02:51:52;1.67;;;0.73;;
73729;SDS011;62036;48.128;16.458;2022-09-09T02:56:48;1.20;;;1.10;;
73729;SDS011;62036;48.128;16.458;2022-09-09T02:59:15;1.15;;;0.70;;
73729;SDS011;62036;48.128;16.458;2022-09-09T03:01:43;1.92;;;1.00;;
73729;SDS011;62036;48.128;16.458;2022-09-09T03:04:10;1.00;;;0.90;;
73729;SDS011;62036;48.128;16.458;2022-09-09T03:06:36;1.15;;;0.95;;
73729;SDS011;62036;48.128;16.458;2022-09-09T03:09:02;1.40;;;1.10;;
73729;SDS011;62036;48.128;16.458;2022-09-09T03:11:28;1.00;;;0.73;;
73729;SDS011;62036;48.128;16.458;2022-09-09T03:13:54;1.23;;;0.75;;
73729;SDS011;62036;48.128;16.458;2022-09-09T03:16:23;1.42;;;1.08;;
73729;SDS011;62036;48.128;16.458;2022-09-09T03:18:49;1.20;;;0.93;;
73729;SDS011;62036;48.128;16.458;2022-09-09T03:21:15;1.50;;;0.88;;
73729;SDS011;62036;48.128;16.458;2022-09-09T03:23:41;1.05;;;0.80;;
73729;SDS011;62036;48.128;16.458;2022-09-09T03:26:07;1.10;;;0.90;;
73729;SDS011;62036;48.128;16.458;2022-09-09T03:28:33;1.30;;;1.10;;
73729;SDS011;62036;48.128;16.458;2022-09-09T03:31:00;0.77;;;0.77;;
73729;SDS011;62036;48.128;16.458;2022-09-09T03:33:27;1.50;;;1.05;;
73729;SDS011;62036;48.128;16.458;2022-09-09T03:35:54;1.33;;;0.90;;
73729;SDS011;62036;48.128;16.458;2022-09-09T03:38:21;1.98;;;0.98;;
73729;SDS011;62036;48.128;16.458;2022-09-09T03:40:55;2.72;;;1.65;;
73729;SDS011;62036;48.128;16.458;2022-09-09T03:43:22;2.47;;;1.35;;
73729;SDS011;62036;48.128;16.458;2022-09-09T03:45:48;1.70;;;1.00;;
73729;SDS011;62036;48.128;16.458;2022-09-09T03:48:15;1.27;;;0.82;;
73729;SDS011;62036;48.128;16.458;2022-09-09T03:50:45;1.65;;;0.90;;
73729;SDS011;62036;48.128;16.458;2022-09-09T03:53:11;1.58;;;1.08;;
73729;SDS011;62036;48.128;16.458;2022-09-09T03:55:37;1.13;;;0.82;;
73729;SDS011;62036;48.128;16.458;2022-09-09T03:58:03;1.83;;;1.00;;
73729;SDS011;62036;48.128;16.458;2022-09-09T04:00:29;1.60;;;1.20;;
73729;SDS011;62036;48.128;16.458;2022-09-09T04:02:55;1.38;;;1.00;;
73729;SDS011;62036;48.128;16.458;2022-09-09T04:05:21;1.95;;;0.93;;
73729;SDS011;62036;48.128;16.458;2022-09-09T04:07:47;2.55;;;1.08;;
73729;SDS011;62036;48.128;16.458;2022-09-09T04:10:13;2.50;;;1.10;;
73729;SDS011;62036;48.128;16.458;2022-09-09T04:12:40;4.03;;;1.48;;
73729;SDS011;62036;48.128;16.458;2022-09-09T04:15:07;1.70;;;1.20;;
73729;SDS011;62036;48.128;16.458;2022-09-09T04:17:33;1.23;;;0.88;;
73729;SDS011;62036;48.128;16.458;2022-09-09T04:20:01;1.63;;;1.05;;
73729;SDS011;62036;48.128;16.458;2022-09-09T04:22:27;1.17;;;0.82;;
73729;SDS011;62036;48.128;16.458;2022-09-09T04:24:53;1.48;;;1.05;;
73729;SDS011;62036;48.128;16.458;2022-09-09T04:27:19;2.50;;;1.17;;
73729;SDS011;62036;48.128;16.458;2022-09-09T04:29:45;1.55;;;1.10;;
73729;SDS011;62036;48.128;16.458;2022-09-09T04:32:11;2.53;;;1.05;;
73729;SDS011;62036;48.128;16.458;2022-09-09T04:34:37;2.78;;;1.05;;
73729;SDS011;62036;48.128;16.458;2022-09-09T04:37:03;2.38;;;1.40;;
73729;SDS011;62036;48.128;16.458;2022-09-09T04:39:29;2.53;;;1.20;;
73729;SDS011;62036;48.128;16.458;2022-09-09T04:41:55;3.38;;;2.33;;
73729;SDS011;62036;48.128;16.458;2022-09-09T04:44:21;2.15;;;1.80;;
73729;SDS011;62036;48.128;16.458;2022-09-09T04:46:47;2.20;;;1.40;;
73729;SDS011;62036;48.128;16.458;2022-09-09T04:49:13;2.17;;;1.40;;
73729;SDS011;62036;48.128;16.458;2022-09-09T04:51:40;2.28;;;1.48;;
73729;SDS011;62036;48.128;16.458;2022-09-09T04:54:06;1.88;;;1.15;;
73729;SDS011;62036;48.128;16.458;2022-09-09T04:56:32;1.08;;;0.98;;
73729;SDS011;62036;48.128;16.458;2022-09-09T04:58:58;1.45;;;1.17;;
73729;SDS011;62036;48.128;16.458;2022-09-09T05:01:24;1.63;;;1.02;;
73729;SDS011;62036;48.128;16.458;2022-09-09T05:03:50;1.55;;;1.13;;
73729;SDS011;62036;48.128;16.458;2022-09-09T05:06:18;4.53;;;1.55;;
73729;SDS011;62036;48.128;16.458;2022-09-09T05:08:45;1.27;;;1.13;;
73729;SDS011;62036;48.128;16.458;2022-09-09T05:11:21;2.83;;;1.38;;
73729;SDS011;62036;48.128;16.458;2022-09-09T05:13:51;1.73;;;1.23;;
73729;SDS011;62036;48.128;16.458;2022-09-09T05:16:17;4.03;;;1.70;;
73729;SDS011;62036;48.128;16.458;2022-09-09T05:18:44;2.30;;;1.40;;
73729;SDS011;62036;48.128;16.458;2022-09-09T05:21:11;6.72;;;2.60;;
73729;SDS011;62036;48.128;16.458;2022-09-09T05:23:38;6.32;;;3.13;;
73729;SDS011;62036;48.128;16.458;2022-09-09T05:26:04;9.15;;;4.32;;
73729;SDS011;62036;48.128;16.458;2022-09-09T05:28:30;5.15;;;2.65;;
73729;SDS011;62036;48.128;16.458;2022-09-09T05:31:00;4.72;;;2.42;;
73729;SDS011;62036;48.128;16.458;2022-09-09T05:33:28;1.67;;;1.20;;
73729;SDS011;62036;48.128;16.458;2022-09-09T05:36:02;1.92;;;1.35;;
73729;SDS011;62036;48.128;16.458;2022-09-09T05:38:29;2.10;;;1.38;;
73729;SDS011;62036;48.128;16.458;2022-09-09T05:40:55;2.47;;;1.35;;
73729;SDS011;62036;48.128;16.458;2022-09-09T05:43:22;2.35;;;1.33;;
73729;SDS011;62036;48.128;16.458;2022-09-09T05:45:48;1.98;;;1.60;;
73729;SDS011;62036;48.128;16.458;2022-09-09T05:48:14;3.47;;;1.58;;
73729;SDS011;62036;48.128;16.458;2022-09-09T05:50:41;2.28;;;1.55;;
73729;SDS011;62036;48.128;16.458;2022-09-09T05:53:07;6.18;;;1.75;;
73729;SDS011;62036;48.128;16.458;2022-09-09T05:55:34;3.50;;;1.58;;
73729;SDS011;62036;48.128;16.458;2022-09-09T05:58:00;2.03;;;1.83;;
73729;SDS011;62036;48.128;16.458;2022-09-09T06:00:26;3.15;;;1.95;;
73729;SDS011;62036;48.128;16.458;2022-09-09T06:02:52;2.75;;;1.58;;
73729;SDS011;62036;48.128;16.458;2022-09-09T06:05:19;4.60;;;1.83;;
73729;SDS011;62036;48.128;16.458;2022-09-09T06:07:47;4.55;;;1.92;;
73729;SDS011;62036;48.128;16.458;2022-09-09T06:10:13;4.38;;;2.17;;
73729;SDS011;62036;48.128;16.458;2022-09-09T06:12:39;4.78;;;2.38;;
73729;SDS011;62036;48.128;16.458;2022-09-09T06:15:05;3.08;;;2.03;;
73729;SDS011;62036;48.128;16.458;2022-09-09T06:17:34;3.72;;;2.33;;
73729;SDS011;62036;48.128;16.458;2022-09-09T06:20:00;3.72;;;2.60;;
73729;SDS011;62036;48.128;16.458;2022-09-09T06:22:26;4.63;;;2.70;;
73729;SDS011;62036;48.128;16.458;2022-09-09T06:24:52;6.85;;;2.65;;
73729;SDS011;62036;48.128;16.458;2022-09-09T06:27:18;4.53;;;2.80;;
73729;SDS011;62036;48.128;16.458;2022-09-09T06:29:44;2.97;;;1.50;;
73729;SDS011;62036;48.128;16.458;2022-09-09T06:32:10;3.92;;;3.10;;
73729;SDS011;62036;48.128;16.458;2022-09-09T06:34:36;3.38;;;2.08;;
73729;SDS011;62036;48.128;16.458;2022-09-09T06:37:02;2.60;;;1.35;;
73729;SDS011;62036;48.128;16.458;2022-09-09T06:39:29;2.28;;;1.50;;
73729;SDS011;62036;48.128;16.458;2022-09-09T06:41:56;3.83;;;1.42;;
73729;SDS011;62036;48.128;16.458;2022-09-09T06:44:23;1.90;;;1.48;;
73729;SDS011;62036;48.128;16.458;2022-09-09T06:46:52;3.90;;;1.65;;
73729;SDS011;62036;48.128;16.458;2022-09-09T06:49:18;2.88;;;1.65;;
73729;SDS011;62036;48.128;16.458;2022-09-09T06:51:44;2.67;;;1.80;;
73729;SDS011;62036;48.128;16.458;2022-09-09T06:54:11;3.63;;;1.92;;
73729;SDS011;62036;48.128;16.458;2022-09-09T06:56:38;4.68;;;2.65;;
73729;SDS011;62036;48.128;16.458;2022-09-09T06:59:08;2.13;;;1.60;;
73729;SDS011;62036;48.128;16.458;2022-09-09T07:01:38;4.40;;;2.85;;
73729;SDS011;62036;48.128;16.458;2022-09-09T07:04:14;3.47;;;2.53;;
73729;SDS011;62036;48.128;16.458;2022-09-09T07:06:41;3.35;;;1.77;;
73729;SDS011;62036;48.128;16.458;2022-09-09T07:09:11;1.75;;;1.58;;
73729;SDS011;62036;48.128;16.458;2022-09-09T07:11:42;3.78;;;2.00;;
73729;SDS011;62036;48.128;16.458;2022-09-09T07:14:08;2.72;;;1.30;;
73729;SDS011;62036;48.128;16.458;2022-09-09T07:16:37;3.28;;;1.58;;
73729;SDS011;62036;48.128;16.458;2022-09-09T07:19:04;3.08;;;1.45;;
73729;SDS011;62036;48.128;16.458;2022-09-09T07:21:30;1.98;;;1.38;;
73729;SDS011;62036;48.128;16.458;2022-09-09T07:23:57;2.70;;;1.23;;
73729;SDS011;62036;48.128;16.458;2022-09-09T07:26:24;1.63;;;1.02;;
73729;SDS011;62036;48.128;16.458;2022-09-09T07:28:50;3.58;;;1.40;;
73729;SDS011;62036;48.128;16.458;2022-09-09T07:31:17;3.95;;;1.92;;
73729;SDS011;62036;48.128;16.458;2022-09-09T07:33:44;5.05;;;1.92;;
73729;SDS011;62036;48.128;16.458;2022-09-09T07:38:51;3.33;;;2.00;;
73729;SDS011;62036;48.128;16.458;2022-09-09T07:41:21;3.03;;;1.90;;
73729;SDS011;62036;48.128;16.458;2022-09-09T07:43:48;3.65;;;1.98;;
73729;SDS011;62036;48.128;16.458;2022-09-09T07:46:16;3.75;;;1.95;;
73729;SDS011;62036;48.128;16.458;2022-09-09T07:48:49;4.25;;;2.47;;
73729;SDS011;62036;48.128;16.458;2022-09-09T07:51:16;4.35;;;1.92;;
73729;SDS011;62036;48.128;16.458;2022-09-09T07:53:44;7.80;;;2.70;;
73729;SDS011;62036;48.128;16.458;2022-09-09T07:56:11;3.00;;;2.35;;
73729;SDS011;62036;48.128;16.458;2022-09-09T07:58:37;7.82;;;2.75;;
73729;SDS011;62036;48.128;16.458;2022-09-09T08:01:07;4.40;;;2.47;;
73729;SDS011;62036;48.128;16.458;2022-09-09T08:03:34;6.47;;;2.63;;
73729;SDS011;62036;48.128;16.458;2022-09-09T08:06:00;6.15;;;2.65;;
73729;SDS011;62036;48.128;16.458;2022-09-09T08:08:27;6.32;;;3.10;;
73729;SDS011;62036;48.128;16.458;2022-09-09T08:10:53;7.90;;;2.67;;
73729;SDS011;62036;48.128;16.458;2022-09-09T08:13:22;5.28;;;2.78;;
73729;SDS011;62036;48.128;16.458;2022-09-09T08:15:48;4.85;;;2.63;;
73729;SDS011;62036;48.128;16.458;2022-09-09T08:18:15;4.95;;;2.55;;
73729;SDS011;62036;48.128;16.458;2022-09-09T08:20:42;3.20;;;2.53;;
73729;SDS011;62036;48.128;16.458;2022-09-09T08:23:08;5.43;;;2.60;;
73729;SDS011;62036;48.128;16.458;2022-09-09T08:25:34;8.82;;;2.80;;
73729;SDS011;62036;48.128;16.458;2022-09-09T08:28:01;6.57;;;2.45;;
73729;SDS011;62036;48.128;16.458;2022-09-09T08:30:28;4.13;;;2.55;;
73729;SDS011;62036;48.128;16.458;2022-09-09T08:32:55;4.65;;;3.20;;
73729;SDS011;62036;48.128;16.458;2022-09-09T08:35:21;5.47;;;3.00;;
73729;SDS011;62036;48.128;16.458;2022-09-09T08:37:47;3.30;;;2.55;;
73729;SDS011;62036;48.128;16.458;2022-09-09T08:40:17;3.90;;;2.50;;
73729;SDS011;62036;48.128;16.458;2022-09-09T08:42:49;3.58;;;2.13;;
73729;SDS011;62036;48.128;16.458;2022-09-09T08:53:02;3.40;;;1.80;;
73729;SDS011;62036;48.128;16.458;2022-09-09T09:00:45;3.95;;;2.63;;
73729;SDS011;62036;48.128;16.458;2022-09-09T09:10:53;3.92;;;1.73;;
73729;SDS011;62036;48.128;16.458;2022-09-09T09:13:37;3.33;;;1.55;;
73729;SDS011;62036;48.128;16.458;2022-09-09T09:16:17;1.83;;;1.10;;
73729;SDS011;62036;48.128;16.458;2022-09-09T09:18:45;1.73;;;0.98;;
73729;SDS011;62036;48.128;16.458;2022-09-09T09:21:12;1.65;;;1.27;;
73729;SDS011;62036;48.128;16.458;2022-09-09T09:23:42;1.10;;;0.90;;
73729;SDS011;62036;48.128;16.458;2022-09-09T09:26:09;1.63;;;1.10;;
73729;SDS011;62036;48.128;16.458;2022-09-09T09:28:38;1.73;;;1.17;;
73729;SDS011;62036;48.128;16.458;2022-09-09T09:31:11;0.70;;;0.57;;
73729;SDS011;62036;48.128;16.458;2022-09-09T09:33:51;0.98;;;0.57;;
73729;SDS011;62036;48.128;16.458;2022-09-09T09:36:18;2.63;;;0.90;;
73729;SDS011;62036;48.128;16.458;2022-09-09T09:41:30;1.10;;;0.80;;
73729;SDS011;62036;48.128;16.458;2022-09-09T09:43:56;0.68;;;0.45;;
73729;SDS011;62036;48.128;16.458;2022-09-09T09:46:23;1.60;;;0.70;;
73729;SDS011;62036;48.128;16.458;2022-09-09T09:49:03;1.23;;;0.50;;
73729;SDS011;62036;48.128;16.458;2022-09-09T09:51:33;1.58;;;0.60;;
73729;SDS011;62036;48.128;16.458;2022-09-09T09:56:34;0.82;;;0.43;;
73729;SDS011;62036;48.128;16.458;2022-09-09T09:59:01;3.22;;;0.60;;
73729;SDS011;62036;48.128;16.458;2022-09-09T10:01:31;1.88;;;0.80;;
73729;SDS011;62036;48.128;16.458;2022-09-09T10:04:22;2.25;;;0.60;;
73729;SDS011;62036;48.128;16.458;2022-09-09T10:06:49;1.00;;;0.60;;
73729;SDS011;62036;48.128;16.458;2022-09-09T10:14:21;0.50;;;0.50;;
73729;SDS011;62036;48.128;16.458;2022-09-09T10:19:31;1.70;;;0.75;;
73729;SDS011;62036;48.128;16.458;2022-09-09T10:24:49;12.45;;;1.98;;
73729;SDS011;62036;48.128;16.458;2022-09-09T10:27:20;2.65;;;0.70;;
73729;SDS011;62036;48.128;16.458;2022-09-09T10:30:00;3.55;;;0.80;;
73729;SDS011;62036;48.128;16.458;2022-09-09T10:34:57;1.27;;;0.70;;
73729;SDS011;62036;48.128;16.458;2022-09-09T10:40:17;0.90;;;0.40;;
73729;SDS011;62036;48.128;16.458;2022-09-09T10:42:46;4.97;;;0.80;;
73729;SDS011;62036;48.128;16.458;2022-09-09T10:52:40;0.88;;;0.50;;
73729;SDS011;62036;48.128;16.458;2022-09-09T10:55:10;2.67;;;0.85;;
73729;SDS011;62036;48.128;16.458;2022-09-09T10:57:41;1.67;;;0.50;;
73729;SDS011;62036;48.128;16.458;2022-09-09T11:03:00;3.25;;;0.50;;
73729;SDS011;62036;48.128;16.458;2022-09-09T11:08:08;3.17;;;1.45;;
73729;SDS011;62036;48.128;16.458;2022-09-09T11:10:41;0.95;;;0.50;;
73729;SDS011;62036;48.128;16.458;2022-09-09T11:13:10;2.55;;;0.30;;
73729;SDS011;62036;48.128;16.458;2022-09-09T11:15:40;2.15;;;0.60;;
73729;SDS011;62036;48.128;16.458;2022-09-09T11:18:14;1.00;;;0.50;;
73729;SDS011;62036;48.128;16.458;2022-09-09T11:20:41;0.47;;;0.32;;
73729;SDS011;62036;48.128;16.458;2022-09-09T11:23:12;0.98;;;0.45;;
73729;SDS011;62036;48.128;16.458;2022-09-09T11:25:43;0.85;;;0.40;;
73729;SDS011;62036;48.128;16.458;2022-09-09T11:33:48;1.08;;;0.30;;
73729;SDS011;62036;48.128;16.458;2022-09-09T11:38:50;1.65;;;0.40;;
73729;SDS011;62036;48.128;16.458;2022-09-09T11:41:17;0.40;;;0.30;;
73729;SDS011;62036;48.128;16.458;2022-09-09T11:43:46;1.38;;;0.50;;
73729;SDS011;62036;48.128;16.458;2022-09-09T11:46:14;1.45;;;0.38;;
73729;SDS011;62036;48.128;16.458;2022-09-09T11:48:42;0.52;;;0.40;;
73729;SDS011;62036;48.128;16.458;2022-09-09T11:51:25;0.60;;;0.30;;
73729;SDS011;62036;48.128;16.458;2022-09-09T11:59:06;1.10;;;0.30;;
73729;SDS011;62036;48.128;16.458;2022-09-09T12:01:43;0.93;;;0.22;;
73729;SDS011;62036;48.128;16.458;2022-09-09T12:06:53;0.98;;;0.40;;
73729;SDS011;62036;48.128;16.458;2022-09-09T12:09:28;2.05;;;0.50;;
73729;SDS011;62036;48.128;16.458;2022-09-09T12:12:21;0.98;;;0.50;;
73729;SDS011;62036;48.128;16.458;2022-09-09T12:17:30;0.50;;;0.40;;
73729;SDS011;62036;48.128;16.458;2022-09-09T12:25:34;1.50;;;0.55;;
73729;SDS011;62036;48.128;16.458;2022-09-09T12:30:34;0.63;;;0.40;;
73729;SDS011;62036;48.128;16.458;2022-09-09T12:33:08;1.35;;;0.50;;
73729;SDS011;62036;48.128;16.458;2022-09-09T12:35:36;1.20;;;0.43;;
73729;SDS011;62036;48.128;16.458;2022-09-09T12:38:03;2.58;;;0.50;;
73729;SDS011;62036;48.128;16.458;2022-09-09T12:40:33;0.73;;;0.40;;
73729;SDS011;62036;48.128;16.458;2022-09-09T12:46:03;0.73;;;0.50;;
73729;SDS011;62036;48.128;16.458;2022-09-09T12:48:35;0.80;;;0.50;;
73729;SDS011;62036;48.128;16.458;2022-09-09T12:51:02;1.50;;;0.80;;
73729;SDS011;62036;48.128;16.458;2022-09-09T12:53:35;1.15;;;0.50;;
73729;SDS011;62036;48.128;16.458;2022-09-09T12:56:03;2.17;;;0.50;;
73729;SDS011;62036;48.128;16.458;2022-09-09T12:58:30;0.50;;;0.40;;
73729;SDS011;62036;48.128;16.458;2022-09-09T13:01:00;0.90;;;0.50;;
73729;SDS011;62036;48.128;16.458;2022-09-09T13:03:26;3.03;;;0.63;;
73729;SDS011;62036;48.128;16.458;2022-09-09T13:05:57;0.38;;;0.30;;
73729;SDS011;62036;48.128;16.458;2022-09-09T13:08:25;0.63;;;0.40;;
73729;SDS011;62036;48.128;16.458;2022-09-09T13:11:01;0.70;;;0.50;;
73729;SDS011;62036;48.128;16.458;2022-09-09T13:13:30;1.42;;;0.47;;
73729;SDS011;62036;48.128;16.458;2022-09-09T13:15:58;0.57;;;0.45;;
73729;SDS011;62036;48.128;16.458;2022-09-09T13:18:31;0.73;;;0.40;;
73729;SDS011;62036;48.128;16.458;2022-09-09T13:20:58;1.42;;;0.43;;
73729;SDS011;62036;48.128;16.458;2022-09-09T13:23:26;1.92;;;0.57;;
73729;SDS011;62036;48.128;16.458;2022-09-09T13:25:56;0.95;;;0.38;;
73729;SDS011;62036;48.128;16.458;2022-09-09T13:28:24;0.50;;;0.40;;
73729;SDS011;62036;48.128;16.458;2022-09-09T13:31:04;1.20;;;0.50;;
73729;SDS011;62036;48.128;16.458;2022-09-09T13:33:38;2.00;;;0.50;;
73729;SDS011;62036;48.128;16.458;2022-09-09T13:36:07;1.02;;;0.60;;
73729;SDS011;62036;48.128;16.458;2022-09-09T13:38:38;1.00;;;0.47;;
73729;SDS011;62036;48.128;16.458;2022-09-09T13:41:05;1.20;;;0.50;;
73729;SDS011;62036;48.128;16.458;2022-09-09T13:43:53;2.00;;;0.40;;
73729;SDS011;62036;48.128;16.458;2022-09-09T13:48:59;0.50;;;0.30;;
73729;SDS011;62036;48.128;16.458;2022-09-09T13:51:35;2.75;;;0.50;;
73729;SDS011;62036;48.128;16.458;2022-09-09T13:54:03;2.28;;;0.65;;
73729;SDS011;62036;48.128;16.458;2022-09-09T13:56:30;1.02;;;0.70;;
73729;SDS011;62036;48.128;16.458;2022-09-09T13:58:56;1.52;;;0.50;;
73729;SDS011;62036;48.128;16.458;2022-09-09T14:01:23;0.90;;;0.47;;
73729;SDS011;62036;48.128;16.458;2022-09-09T14:03:49;0.50;;;0.30;;
73729;SDS011;62036;48.128;16.458;2022-09-09T14:06:16;1.45;;;0.50;;
73729;SDS011;62036;48.128;16.458;2022-09-09T14:08:43;2.55;;;0.60;;
73729;SDS011;62036;48.128;16.458;2022-09-09T14:11:11;1.40;;;0.55;;
73729;SDS011;62036;48.128;16.458;2022-09-09T14:13:38;2.70;;;0.60;;
73729;SDS011;62036;48.128;16.458;2022-09-09T14:16:04;0.75;;;0.40;;
73729;SDS011;62036;48.128;16.458;2022-09-09T14:18:30;1.95;;;0.50;;
73729;SDS011;62036;48.128;16.458;2022-09-09T14:20:56;2.40;;;0.57;;
73729;SDS011;62036;48.128;16.458;2022-09-09T14:23:23;0.80;;;0.30;;
73729;SDS011;62036;48.128;16.458;2022-09-09T14:25:50;0.90;;;0.55;;
73729;SDS011;62036;48.128;16.458;2022-09-09T14:28:16;0.70;;;0.32;;
73729;SDS011;62036;48.128;16.458;2022-09-09T14:30:43;2.42;;;0.75;;
73729;SDS011;62036;48.128;16.458;2022-09-09T14:33:13;2.05;;;0.80;;
73729;SDS011;62036;48.128;16.458;2022-09-09T14:35:39;2.72;;;0.50;;
73729;SDS011;62036;48.128;16.458;2022-09-09T14:38:06;1.77;;;0.30;;
73729;SDS011;62036;48.128;16.458;2022-09-09T14:40:33;2.75;;;0.70;;
73729;SDS011;62036;48.128;16.458;2022-09-09T14:42:59;1.60;;;0.43;;
73729;SDS011;62036;48.128;16.458;2022-09-09T14:45:25;1.08;;;0.40;;
73729;SDS011;62036;48.128;16.458;2022-09-09T14:47:52;0.90;;;0.40;;
73729;SDS011;62036;48.128;16.458;2022-09-09T14:50:18;1.95;;;0.50;;
73729;SDS011;62036;48.128;16.458;2022-09-09T14:52:45;1.05;;;0.50;;
73729;SDS011;62036;48.128;16.458;2022-09-09T14:55:11;1.58;;;0.47;;
73729;SDS011;62036;48.128;16.458;2022-09-09T14:57:37;1.85;;;0.85;;
73729;SDS011;62036;48.128;16.458;2022-09-09T15:00:05;1.13;;;0.93;;
73729;SDS011;62036;48.128;16.458;2022-09-09T15:02:31;2.58;;;0.70;;
73729;SDS011;62036;48.128;16.458;2022-09-09T15:04:57;4.35;;;1.58;;
73729;SDS011;62036;48.128;16.458;2022-09-09T15:07:24;8.93;;;5.50;;
73729;SDS011;62036;48.128;16.458;2022-09-09T15:09:50;3.40;;;2.20;;
73729;SDS011;62036;48.128;16.458;2022-09-09T15:12:17;2.42;;;1.33;;
73729;SDS011;62036;48.128;16.458;2022-09-09T15:14:44;2.28;;;1.42;;
73729;SDS011;62036;48.128;16.458;2022-09-09T15:17:10;1.67;;;0.80;;
73729;SDS011;62036;48.128;16.458;2022-09-09T15:19:36;1.50;;;0.80;;
73729;SDS011;62036;48.128;16.458;2022-09-09T15:22:02;2.20;;;0.95;;
73729;SDS011;62036;48.128;16.458;2022-09-09T15:24:30;1.73;;;0.85;;
73729;SDS011;62036;48.128;16.458;2022-09-09T15:26:56;5.28;;;3.03;;
73729;SDS011;62036;48.128;16.458;2022-09-09T15:29:22;6.00;;;3.22;;
73729;SDS011;62036;48.128;16.458;2022-09-09T15:31:48;4.22;;;1.80;;
73729;SDS011;62036;48.128;16.458;2022-09-09T15:34:14;3.63;;;1.80;;
73729;SDS011;62036;48.128;16.458;2022-09-09T15:36:41;4.25;;;2.60;;
73729;SDS011;62036;48.128;16.458;2022-09-09T15:39:09;8.88;;;5.75;;
73729;SDS011;62036;48.128;16.458;2022-09-09T15:41:37;10.68;;;6.22;;
73729;SDS011;62036;48.128;16.458;2022-09-09T15:44:04;5.00;;;3.28;;
73729;SDS011;62036;48.128;16.458;2022-09-09T15:49:04;2.78;;;1.58;;
73729;SDS011;62036;48.128;16.458;2022-09-09T15:51:31;1.67;;;0.98;;
73729;SDS011;62036;48.128;16.458;2022-09-09T15:53:58;1.35;;;0.70;;
73729;SDS011;62036;48.128;16.458;2022-09-09T15:56:27;2.35;;;0.93;;
73729;SDS011;62036;48.128;16.458;2022-09-09T15:58:55;1.30;;;0.85;;
73729;SDS011;62036;48.128;16.458;2022-09-09T16:01:22;1.17;;;0.95;;
73729;SDS011;62036;48.128;16.458;2022-09-09T16:03:48;2.50;;;1.08;;
73729;SDS011;62036;48.128;16.458;2022-09-09T16:06:18;2.88;;;1.08;;
73729;SDS011;62036;48.128;16.458;2022-09-09T16:08:46;3.00;;;0.90;;
73729;SDS011;62036;48.128;16.458;2022-09-09T16:11:18;3.95;;;1.23;;
73729;SDS011;62036;48.128;16.458;2022-09-09T16:13:45;2.67;;;1.58;;
73729;SDS011;62036;48.128;16.458;2022-09-09T16:16:12;4.15;;;0.82;;
73729;SDS011;62036;48.128;16.458;2022-09-09T16:18:39;1.50;;;0.80;;
73729;SDS011;62036;48.128;16.458;2022-09-09T16:21:05;1.80;;;0.90;;
73729;SDS011;62036;48.128;16.458;2022-09-09T16:23:33;1.83;;;0.90;;
73729;SDS011;62036;48.128;16.458;2022-09-09T16:25:59;1.70;;;1.10;;
73729;SDS011;62036;48.128;16.458;2022-09-09T16:28:26;1.83;;;1.10;;
73729;SDS011;62036;48.128;16.458;2022-09-09T16:30:52;0.90;;;0.75;;
73729;SDS011;62036;48.128;16.458;2022-09-09T16:33:18;2.33;;;0.80;;
73729;SDS011;62036;48.128;16.458;2022-09-09T16:35:44;1.67;;;0.90;;
73729;SDS011;62036;48.128;16.458;2022-09-09T16:38:10;2.47;;;0.95;;
73729;SDS011;62036;48.128;16.458;2022-09-09T16:40:37;1.77;;;0.80;;
73729;SDS011;62036;48.128;16.458;2022-09-09T16:43:05;2.65;;;1.25;;
73729;SDS011;62036;48.128;16.458;2022-09-09T16:45:31;1.52;;;0.98;;
73729;SDS011;62036;48.128;16.458;2022-09-09T16:47:58;3.83;;;1.00;;
73729;SDS011;62036;48.128;16.458;2022-09-09T16:50:24;1.75;;;1.00;;
73729;SDS011;62036;48.128;16.458;2022-09-09T16:52:51;2.22;;;1.02;;
73729;SDS011;62036;48.128;16.458;2022-09-09T16:55:17;2.92;;;1.20;;